createdAt,value
2022-08-01T00:00:15.022Z,99718.44
2022-08-01T00:02:42.148Z,99722.88
2022-08-01T00:05:09.887Z,99723.75
2022-08-01T00:07:37.052Z,99721.19
2022-08-01T00:10:11.154Z,99718.66
2022-08-01T00:12:38.652Z,99712.56
2022-08-01T00:15:07.640Z,99713.34
2022-08-01T00:17:35.010Z,99713.28
2022-08-01T00:20:03.753Z,99716.69
2022-08-01T00:22:32.568Z,99716.72
2022-08-01T00:24:59.580Z,99718.50
2022-08-01T00:27:26.712Z,99715.09
2022-08-01T00:30:11.378Z,99704.75
2022-08-01T00:32:40.791Z,99710.88
2022-08-01T00:35:08.206Z,99707.34
2022-08-01T00:37:35.139Z,99706.34
2022-08-01T00:40:02.251Z,99694.84
2022-08-01T00:42:29.239Z,99705.06
2022-08-01T00:44:56.311Z,99699.78
2022-08-01T00:47:23.229Z,99694.56
2022-08-01T00:49:50.309Z,99691.00
2022-08-01T00:52:17.410Z,99691.78
2022-08-01T00:54:44.864Z,99692.53
2022-08-01T00:57:11.812Z,99691.66
2022-08-01T00:59:42.650Z,99691.63
2022-08-01T01:02:14.642Z,99688.16
2022-08-01T01:04:43.912Z,99696.06
2022-08-01T01:07:34.046Z,99695.34
2022-08-01T01:10:11.207Z,99691.09
2022-08-01T01:13:20.080Z,99701.63
2022-08-01T01:16:01.656Z,99700.00
2022-08-01T01:18:34.679Z,99698.38
2022-08-01T01:21:07.043Z,99689.84
2022-08-01T01:23:52.778Z,99696.88
2022-08-01T01:26:44.923Z,99697.81
2022-08-01T01:29:17.385Z,99696.97
2022-08-01T01:32:11.901Z,99691.81
2022-08-01T01:34:41.609Z,99691.81
2022-08-01T01:37:12.243Z,99690.94
2022-08-01T01:39:45.356Z,99690.13
2022-08-01T01:42:22.185Z,99690.16
2022-08-01T01:44:49.980Z,99691.94
2022-08-01T01:47:18.534Z,99682.41
2022-08-01T01:49:47.762Z,99688.47
2022-08-01T01:52:17.064Z,99683.28
2022-08-01T01:54:48.330Z,99680.66
2022-08-01T01:57:16.707Z,99688.47
2022-08-01T01:59:45.021Z,99682.41
2022-08-01T02:02:13.143Z,99682.44
2022-08-01T02:04:43.687Z,99685.06
2022-08-01T02:07:13.354Z,99678.13
2022-08-01T02:09:42.686Z,99687.72
2022-08-01T02:12:12.394Z,99692.09
2022-08-01T02:14:43.218Z,99685.19
2022-08-01T02:17:13.900Z,99689.44
2022-08-01T02:19:41.388Z,99675.53
2022-08-01T02:22:13.274Z,99682.41
2022-08-01T02:24:43.169Z,99689.31
2022-08-01T02:27:29.962Z,99683.28
2022-08-01T02:30:00.704Z,99675.47
2022-08-01T02:32:33.023Z,99673.78
2022-08-01T02:35:02.665Z,99679.88
2022-08-01T02:37:32.718Z,99678.97
2022-08-01T02:40:00.733Z,99676.41
2022-08-01T02:42:29.471Z,99681.66
2022-08-01T02:44:57.060Z,99680.75
2022-08-01T02:47:24.654Z,99678.13
2022-08-01T02:49:53.999Z,99672.09
2022-08-01T02:52:22.667Z,99679.00
2022-08-01T02:54:52.580Z,99676.44
2022-08-01T02:57:22.143Z,99671.16
2022-08-01T02:59:50.966Z,99682.44
2022-08-01T03:02:18.678Z,99679.84
2022-08-01T03:04:46.839Z,99680.59
2022-08-01T03:07:14.270Z,99679.59
2022-08-01T03:09:44.404Z,99683.00
2022-08-01T03:12:21.469Z,99683.78
2022-08-01T03:14:49.355Z,99680.94
2022-08-01T03:17:19.585Z,99688.56
2022-08-01T03:19:47.197Z,99675.34
2022-08-01T03:22:15.914Z,99674.25
2022-08-01T03:24:44.245Z,99673.56
2022-08-01T03:27:11.795Z,99678.19
2022-08-01T03:29:40.802Z,99685.09
2022-08-01T03:32:08.486Z,99692.81
2022-08-01T03:34:35.720Z,99688.94
2022-08-01T03:37:10.945Z,99680.75
2022-08-01T03:39:48.699Z,99698.44
2022-08-01T03:42:19.538Z,99696.34
2022-08-01T03:45:01.241Z,99702.75
2022-08-01T03:47:32.844Z,99703.41
2022-08-01T03:50:00.606Z,99712.22
2022-08-01T03:52:28.991Z,99710.38
2022-08-01T03:54:57.749Z,99709.69
2022-08-01T03:57:35.797Z,99707.31
2022-08-01T04:00:08.308Z,99707.41
2022-08-01T04:02:39.512Z,99704.91
2022-08-01T04:05:08.180Z,99702.25
2022-08-01T04:07:40.407Z,99708.13
2022-08-01T04:10:08.101Z,99700.03
2022-08-01T04:12:35.585Z,99697.41
2022-08-01T04:15:03.037Z,99695.56
2022-08-01T04:17:30.652Z,99688.47
2022-08-01T04:19:57.756Z,99693.06
2022-08-01T04:22:24.959Z,99686.78
2022-08-01T04:24:56.913Z,99693.88
2022-08-01T04:27:50.580Z,99695.78
2022-08-01T04:30:22.384Z,99695.78
2022-08-01T04:32:51.059Z,99685.03
2022-08-01T04:35:23.383Z,99693.22
2022-08-01T04:38:07.515Z,99684.69
2022-08-01T04:40:36.881Z,99684.69
2022-08-01T04:43:04.215Z,99696.72
2022-08-01T04:45:33.390Z,99692.78
2022-08-01T04:48:01.294Z,99697.19
2022-08-01T04:50:29.069Z,99693.47
2022-08-01T04:52:57.934Z,99694.94
2022-08-01T04:55:24.943Z,99689.56
2022-08-01T04:57:51.952Z,99690.94
2022-08-01T05:00:18.962Z,99691.94
2022-08-01T05:02:46.142Z,99691.13
2022-08-01T05:05:13.576Z,99691.81
2022-08-01T05:07:45.093Z,99697.72
2022-08-01T05:10:13.092Z,99701.66
2022-08-01T05:12:39.993Z,99702.31
2022-08-01T05:15:11.770Z,99695.88
2022-08-01T05:17:43.519Z,99698.25
2022-08-01T05:20:12.566Z,99702.81
2022-08-01T05:22:39.921Z,99698.00
2022-08-01T05:25:07.249Z,99693.41
2022-08-01T05:27:39.254Z,99699.88
2022-08-01T05:30:09.685Z,99696.22
2022-08-01T05:32:37.373Z,99688.56
2022-08-01T05:35:05.031Z,99693.66
2022-08-01T05:37:32.070Z,99689.44
2022-08-01T05:39:58.998Z,99704.09
2022-08-01T05:42:26.162Z,99705.47
2022-08-01T05:44:53.471Z,99702.56
2022-08-01T05:47:20.457Z,99696.00
2022-08-01T05:49:47.722Z,99698.13
2022-08-01T05:52:15.082Z,99695.56
2022-08-01T05:54:42.252Z,99692.34
2022-08-01T05:57:09.200Z,99693.47
2022-08-01T05:59:38.179Z,99695.16
2022-08-01T06:02:05.651Z,99693.63
2022-08-01T06:04:32.997Z,99689.03
2022-08-01T06:06:59.940Z,99687.63
2022-08-01T06:09:26.997Z,99693.03
2022-08-01T06:11:54.043Z,99688.72
2022-08-01T06:14:21.016Z,99690.72
2022-08-01T06:16:48.078Z,99690.47
2022-08-01T06:19:14.983Z,99692.53
2022-08-01T06:21:41.971Z,99693.38
2022-08-01T06:24:10.172Z,99688.22
2022-08-01T06:26:38.162Z,99691.25
2022-08-01T06:29:05.135Z,99693.31
2022-08-01T06:31:33.964Z,99692.75
2022-08-01T06:34:01.506Z,99700.31
2022-08-01T06:36:28.493Z,99686.00
2022-08-01T06:38:55.542Z,99687.59
2022-08-01T06:41:22.463Z,99691.88
2022-08-01T06:43:49.471Z,99686.59
2022-08-01T06:46:16.446Z,99689.38
2022-08-01T06:48:43.762Z,99666.63
2022-08-01T06:51:12.387Z,99686.59
2022-08-01T06:53:39.501Z,99688.78
2022-08-01T06:56:07.407Z,99681.56
2022-08-01T06:58:35.715Z,99684.63
2022-08-01T07:01:09.954Z,99686.06
2022-08-01T07:03:54.613Z,99688.69
2022-08-01T07:06:26.140Z,99694.16
2022-08-01T07:08:54.246Z,99687.38
2022-08-01T07:11:22.389Z,99689.88
2022-08-01T07:13:49.463Z,99690.78
2022-08-01T07:16:17.234Z,99685.69
2022-08-01T07:18:44.306Z,99688.69
2022-08-01T07:21:16.531Z,99684.13
2022-08-01T07:23:58.404Z,99684.34
2022-08-01T07:26:27.710Z,99689.34
2022-08-01T07:28:54.940Z,99695.53
2022-08-01T07:31:22.103Z,99689.66
2022-08-01T07:33:49.554Z,99684.13
2022-08-01T07:36:20.116Z,99680.22
2022-08-01T07:38:47.622Z,99688.28
2022-08-01T07:41:15.415Z,99685.69
2022-08-01T07:43:47.358Z,99676.53
2022-08-01T07:46:20.253Z,99677.41
2022-08-01T07:48:47.381Z,99682.34
2022-08-01T07:51:14.619Z,99691.81
2022-08-01T07:53:41.691Z,99686.81
2022-08-01T07:56:08.701Z,99678.41
2022-08-01T07:58:35.676Z,99686.50
2022-08-01T08:01:02.747Z,99670.94
2022-08-01T08:03:29.792Z,99677.84
2022-08-01T08:05:58.639Z,99675.63
2022-08-01T08:08:28.538Z,99680.31
2022-08-01T08:10:55.473Z,99682.66
2022-08-01T08:13:23.057Z,99676.44
2022-08-01T08:15:50.067Z,99677.66
2022-08-01T08:18:17.467Z,99664.78
2022-08-01T08:20:45.055Z,99678.19
2022-08-01T08:23:43.166Z,99680.22
2022-08-01T08:26:13.823Z,99681.34
2022-08-01T08:28:40.978Z,99680.25
2022-08-01T08:31:25.586Z,99670.38
2022-08-01T08:33:56.342Z,99672.59
2022-08-01T08:36:31.289Z,99677.91
2022-08-01T08:39:01.766Z,99685.84
2022-08-01T08:41:37.746Z,99680.63
2022-08-01T08:44:10.363Z,99679.78
2022-08-01T08:46:56.997Z,99678.72
2022-08-01T08:49:35.654Z,99679.88
2022-08-01T08:52:05.166Z,99679.41
2022-08-01T08:54:33.511Z,99676.91
2022-08-01T08:57:01.937Z,99677.84
2022-08-01T08:59:29.681Z,99675.75
2022-08-01T09:01:58.352Z,99671.63
2022-08-01T09:04:26.717Z,99677.72
2022-08-01T09:06:56.634Z,99677.59
2022-08-01T09:09:24.705Z,99679.47
2022-08-01T09:12:05.284Z,99676.63
2022-08-01T09:14:32.588Z,99681.63
2022-08-01T09:17:03.896Z,99683.44
2022-08-01T09:19:41.423Z,99689.88
2022-08-01T09:22:14.358Z,99683.56
2022-08-01T09:24:42.577Z,99682.22
2022-08-01T09:27:25.234Z,99680.31
2022-08-01T09:30:01.439Z,99678.84
2022-08-01T09:32:35.716Z,99678.97
2022-08-01T09:35:31.040Z,99675.06
2022-08-01T09:38:14.696Z,99685.03
2022-08-01T09:40:55.723Z,99678.97
2022-08-01T09:43:29.750Z,99675.84
2022-08-01T09:45:59.485Z,99671.47
2022-08-01T09:48:28.664Z,99676.06
2022-08-01T09:51:04.348Z,99671.66
2022-08-01T09:53:52.090Z,99671.91
2022-08-01T09:56:21.457Z,99675.41
2022-08-01T09:59:01.499Z,99675.59
2022-08-01T10:01:50.198Z,99676.06
2022-08-01T10:04:22.547Z,99676.63
2022-08-01T10:06:55.453Z,99679.47
2022-08-01T10:09:39.619Z,99667.22
2022-08-01T10:12:07.956Z,99666.72
2022-08-01T10:14:37.487Z,99667.31
2022-08-01T10:17:09.291Z,99667.63
2022-08-01T10:19:47.433Z,99668.31
2022-08-01T10:22:17.907Z,99664.84
2022-08-01T10:24:47.275Z,99665.63
2022-08-01T10:27:21.394Z,99666.63
2022-08-01T10:30:06.822Z,99665.28
2022-08-01T10:32:43.683Z,99663.34
2022-08-01T10:35:46.784Z,99668.91
2022-08-01T10:38:13.451Z,99668.81
2022-08-01T10:40:42.486Z,99663.06
2022-08-01T10:43:11.386Z,99662.94
2022-08-01T10:45:38.571Z,99669.66
2022-08-01T10:48:12.563Z,99664.50
2022-08-01T10:50:48.667Z,99660.56
2022-08-01T10:53:43.040Z,99664.97
2022-08-01T10:56:12.932Z,99654.44
2022-08-01T10:58:44.502Z,99656.59
2022-08-01T11:01:28.734Z,99654.88
2022-08-01T11:04:02.409Z,99658.25
2022-08-01T11:06:35.128Z,99656.19
2022-08-01T11:09:12.497Z,99658.50
2022-08-01T11:12:06.106Z,99655.59
2022-08-01T11:14:55.175Z,99661.06
2022-08-01T11:17:42.901Z,99662.06
2022-08-01T11:20:18.118Z,99672.16
2022-08-01T11:23:06.983Z,99662.78
2022-08-01T11:26:05.839Z,99651.94
2022-08-01T11:28:32.570Z,99659.69
2022-08-01T11:31:11.704Z,99660.91
2022-08-01T11:33:45.797Z,99660.41
2022-08-01T11:36:14.703Z,99656.88
2022-08-01T11:38:47.706Z,99654.84
2022-08-01T11:41:15.583Z,99641.41
2022-08-01T11:44:02.133Z,99641.75
2022-08-01T11:46:47.806Z,99659.56
2022-08-01T11:49:49.089Z,99640.97
2022-08-01T11:52:20.443Z,99666.03
2022-08-01T11:54:51.679Z,99660.31
2022-08-01T11:57:36.217Z,99653.88
2022-08-01T12:00:08.527Z,99662.91
2022-08-01T12:02:41.735Z,99655.06
2022-08-01T12:05:15.673Z,99652.97
2022-08-01T12:07:44.302Z,99655.31
2022-08-01T12:10:12.287Z,99663.63
2022-08-01T12:12:48.095Z,99655.94
2022-08-01T12:15:15.591Z,99657.91
2022-08-01T12:17:55.293Z,99655.81
2022-08-01T12:20:32.406Z,99663.69
2022-08-01T12:23:09.676Z,99659.47
2022-08-01T12:25:37.827Z,99654.56
2022-08-01T12:28:06.298Z,99660.47
2022-08-01T12:30:36.973Z,99655.69
2022-08-01T12:33:07.235Z,99653.56
2022-08-01T12:35:35.184Z,99664.97
2022-08-01T12:38:11.129Z,99663.72
2022-08-01T12:40:45.316Z,99652.66
2022-08-01T12:43:27.022Z,99657.00
2022-08-01T12:45:58.233Z,99667.75
2022-08-01T12:48:26.325Z,99660.75
2022-08-01T12:50:54.496Z,99655.09
2022-08-01T12:53:22.227Z,99665.63
2022-08-01T12:55:58.049Z,99666.28
2022-08-01T12:58:35.906Z,99672.34
2022-08-01T13:01:15.152Z,99666.91
2022-08-01T13:03:42.325Z,99666.94
2022-08-01T13:06:17.823Z,99666.66
2022-08-01T13:08:46.084Z,99678.38
2022-08-01T13:11:15.727Z,99665.44
2022-08-01T13:13:45.725Z,99665.97
2022-08-01T13:16:18.180Z,99675.81
2022-08-01T13:19:00.078Z,99684.94
2022-08-01T13:21:29.531Z,99687.09
2022-08-01T13:24:16.746Z,99693.34
2022-08-01T13:27:01.239Z,99688.38
2022-08-01T13:29:39.700Z,99690.44
2022-08-01T13:32:27.701Z,99698.59
2022-08-01T13:35:09.319Z,99689.00
2022-08-01T13:37:38.984Z,99699.00
2022-08-01T13:40:08.366Z,99698.91
2022-08-01T13:42:35.896Z,99695.75
2022-08-01T13:45:09.219Z,99698.75
2022-08-01T13:48:03.175Z,99692.94
2022-08-01T13:50:30.309Z,99696.78
2022-08-01T13:52:58.274Z,99710.63
2022-08-01T13:55:25.439Z,99706.03
2022-08-01T13:57:52.488Z,99702.69
2022-08-01T14:00:19.656Z,99700.66
2022-08-01T14:02:46.676Z,99716.22
2022-08-01T14:05:13.790Z,99717.16
2022-08-01T14:07:41.464Z,99714.91
2022-08-01T14:10:19.735Z,99722.38
2022-08-01T14:12:50.981Z,99723.88
2022-08-01T14:15:38.319Z,99721.06
2022-08-01T14:18:06.976Z,99728.25
2022-08-01T14:20:35.373Z,99723.53
2022-08-01T14:23:02.595Z,99725.91
2022-08-01T14:26:02.914Z,99723.59
2022-08-01T14:28:17.106Z,99737.09
2022-08-01T14:30:44.719Z,99728.19
2022-08-01T14:33:13.086Z,99713.78
2022-08-01T14:36:01.549Z,99730.19
2022-08-01T14:38:30.543Z,99736.03
2022-08-01T14:40:59.661Z,99742.28
2022-08-01T14:43:32.673Z,99728.94
2022-08-01T14:46:02.192Z,99733.13
2022-08-01T14:48:30.206Z,99742.66
2022-08-01T14:50:59.128Z,99747.13
2022-08-01T14:53:26.456Z,99749.97
2022-08-01T14:55:53.757Z,99752.13
2022-08-01T14:58:20.967Z,99751.00
2022-08-01T15:00:48.303Z,99761.50
2022-08-01T15:03:15.549Z,99756.78
2022-08-01T15:05:42.688Z,99760.22
2022-08-01T15:08:09.858Z,99754.69
2022-08-01T15:10:37.148Z,99762.28
2022-08-01T15:13:04.158Z,99754.13
2022-08-01T15:15:31.317Z,99761.50
2022-08-01T15:17:58.740Z,99760.28
2022-08-01T15:20:27.945Z,99765.66
2022-08-01T15:22:55.459Z,99774.31
2022-08-01T15:25:22.424Z,99771.69
2022-08-01T15:27:49.400Z,99761.34
2022-08-01T15:30:16.296Z,99761.31
2022-08-01T15:32:43.241Z,99762.94
2022-08-01T15:35:11.351Z,99756.47
2022-08-01T15:37:42.767Z,99762.94
2022-08-01T15:40:12.443Z,99757.53
2022-08-01T15:42:39.583Z,99762.75
2022-08-01T15:45:10.617Z,99762.75
2022-08-01T15:47:40.476Z,99753.19
2022-08-01T15:50:08.014Z,99758.50
2022-08-01T15:52:35.137Z,99758.50
2022-08-01T15:55:02.545Z,99761.81
2022-08-01T15:57:29.786Z,99758.13
2022-08-01T15:59:56.892Z,99760.13
2022-08-01T16:02:23.999Z,99762.38
2022-08-01T16:04:51.213Z,99763.78
2022-08-01T16:07:18.158Z,99759.38
2022-08-01T16:09:45.179Z,99783.91
2022-08-01T16:12:12.349Z,99770.97
2022-08-01T16:14:39.290Z,99764.94
2022-08-01T16:17:06.360Z,99777.44
2022-08-01T16:19:33.349Z,99765.78
2022-08-01T16:22:00.360Z,99769.66
2022-08-01T16:24:30.092Z,99771.81
2022-08-01T16:26:57.253Z,99771.53
2022-08-01T16:29:30.592Z,99767.75
2022-08-01T16:32:10.862Z,99771.41
2022-08-01T16:34:46.884Z,99783.19
2022-08-01T16:37:14.042Z,99770.41
2022-08-01T16:39:41.236Z,99775.81
2022-08-01T16:42:08.753Z,99785.91
2022-08-01T16:44:36.146Z,99778.09
2022-08-01T16:47:05.290Z,99778.84
2022-08-01T16:49:33.274Z,99781.66
2022-08-01T16:52:00.577Z,99784.00
2022-08-01T16:54:28.278Z,99781.69
2022-08-01T16:56:56.033Z,99791.13
2022-08-01T16:59:24.862Z,99795.69
2022-08-01T17:01:58.928Z,99786.44
2022-08-01T17:04:29.199Z,99793.19
2022-08-01T17:06:56.283Z,99800.00
2022-08-01T17:09:23.488Z,99795.91
2022-08-01T17:11:50.429Z,99798.28
2022-08-01T17:14:17.991Z,99795.97
2022-08-01T17:16:45.329Z,99802.44
2022-08-01T17:19:12.310Z,99802.94
2022-08-01T17:21:42.561Z,99803.94
2022-08-01T17:24:09.779Z,99805.97
2022-08-01T17:26:36.818Z,99803.66
2022-08-01T17:29:04.066Z,99794.16
2022-08-01T17:31:30.972Z,99802.56
2022-08-01T17:33:57.934Z,99808.00
2022-08-01T17:36:24.984Z,99819.72
2022-08-01T17:38:51.915Z,99817.00
2022-08-01T17:41:18.952Z,99822.59
2022-08-01T17:43:45.983Z,99819.50
2022-08-01T17:46:13.144Z,99825.25
2022-08-01T17:48:40.406Z,99816.56
2022-08-01T17:51:07.492Z,99828.84
2022-08-01T17:53:34.760Z,99819.44
2022-08-01T17:56:05.575Z,99825.78
2022-08-01T17:58:51.424Z,99833.00
2022-08-01T18:01:20.141Z,99828.81
2022-08-01T18:03:48.086Z,99833.41
2022-08-01T18:06:19.076Z,99830.03
2022-08-01T18:08:47.768Z,99832.22
2022-08-01T18:11:16.274Z,99833.69
2022-08-01T18:13:43.795Z,99844.03
2022-08-01T18:16:13.317Z,99836.88
2022-08-01T18:18:41.885Z,99837.66
2022-08-01T18:21:09.063Z,99843.53
2022-08-01T18:23:36.210Z,99848.41
2022-08-01T18:26:06.217Z,99848.09
2022-08-01T18:28:41.680Z,99845.16
2022-08-01T18:31:13.152Z,99851.91
2022-08-01T18:33:40.426Z,99852.63
2022-08-01T18:36:07.669Z,99852.38
2022-08-01T18:38:39.929Z,99856.66
2022-08-01T18:41:11.998Z,99861.00
2022-08-01T18:43:39.332Z,99866.28
2022-08-01T18:46:07.057Z,99864.19
2022-08-01T18:48:34.050Z,99867.94
2022-08-01T18:51:01.068Z,99874.28
2022-08-01T18:53:28.370Z,99877.16
2022-08-01T18:55:55.531Z,99881.69
2022-08-01T18:58:23.067Z,99881.81
2022-08-01T19:00:50.635Z,99883.81
2022-08-01T19:03:20.596Z,99880.63
2022-08-01T19:05:50.703Z,99898.50
2022-08-01T19:08:17.697Z,99898.63
2022-08-01T19:10:44.876Z,99905.88
2022-08-01T19:13:12.135Z,99907.94
2022-08-01T19:15:39.164Z,99904.88
2022-08-01T19:18:06.805Z,99908.22
2022-08-01T19:20:33.862Z,99902.03
2022-08-01T19:23:20.690Z,99910.81
2022-08-01T19:25:55.547Z,99903.84
2022-08-01T19:28:27.389Z,99914.28
2022-08-01T19:30:55.864Z,99912.19
2022-08-01T19:33:22.976Z,99915.44
2022-08-01T19:35:52.937Z,99915.03
2022-08-01T19:38:20.398Z,99917.84
2022-08-01T19:40:47.515Z,99913.69
2022-08-01T19:43:14.662Z,99913.09
2022-08-01T19:45:42.975Z,99920.31
2022-08-01T19:48:12.453Z,99918.78
2022-08-01T19:50:41.117Z,99933.06
2022-08-01T19:53:09.739Z,99932.66
2022-08-01T19:55:40.147Z,99923.56
2022-08-01T19:58:26.362Z,99922.09
2022-08-01T20:00:54.368Z,99928.44
2022-08-01T20:03:22.192Z,99923.59
2022-08-01T20:05:51.270Z,99918.63
2022-08-01T20:08:20.309Z,99920.56
2022-08-01T20:10:48.880Z,99928.56
2022-08-01T20:13:17.143Z,99930.53
2022-08-01T20:15:45.085Z,99928.94
2022-08-01T20:18:12.561Z,99934.22
2022-08-01T20:20:40.079Z,99929.94
2022-08-01T20:23:10.402Z,99931.03
2022-08-01T20:25:39.869Z,99931.25
2022-08-01T20:28:10.983Z,99940.22
2022-08-01T20:30:39.531Z,99934.28
2022-08-01T20:33:08.315Z,99936.22
2022-08-01T20:35:51.722Z,99939.84
2022-08-01T20:38:27.785Z,99936.38
2022-08-01T20:40:59.505Z,99940.84
2022-08-01T20:43:27.827Z,99938.34
2022-08-01T20:45:56.495Z,99940.28
2022-08-01T20:48:26.563Z,99941.31
2022-08-01T20:51:13.531Z,99944.94
2022-08-01T20:53:46.959Z,99940.81
2022-08-01T20:56:17.872Z,99948.84
2022-08-01T20:59:09.769Z,99947.28
2022-08-01T21:01:45.919Z,99947.44
2022-08-01T21:04:18.752Z,99948.34
2022-08-01T21:06:55.135Z,99949.38
2022-08-01T21:09:25.382Z,99950.38
2022-08-01T21:12:07.261Z,99954.03
2022-08-01T21:14:46.406Z,99961.16
2022-08-01T21:17:38.578Z,99958.66
2022-08-01T21:20:09.598Z,99964.97
2022-08-01T21:22:50.034Z,99963.41
2022-08-01T21:25:18.883Z,99964.31
2022-08-01T21:27:46.348Z,99971.41
2022-08-01T21:30:13.480Z,99970.63
2022-08-01T21:32:42.045Z,99968.94
2022-08-01T21:35:16.341Z,99972.47
2022-08-01T21:37:49.041Z,99975.97
2022-08-01T21:40:23.970Z,99976.94
2022-08-01T21:42:52.367Z,99971.72
2022-08-01T21:45:23.738Z,99982.41
2022-08-01T21:47:51.263Z,99985.94
2022-08-01T21:50:20.164Z,99986.03
2022-08-01T21:52:50.502Z,99989.59
2022-08-01T21:55:37.837Z,99997.59
2022-08-01T21:58:31.740Z,99998.50
2022-08-01T22:01:51.403Z,100003.78
2022-08-01T22:04:42.903Z,100002.06
2022-08-01T22:07:11.423Z,99999.50
2022-08-01T22:09:45.231Z,99997.03
2022-08-01T22:12:17.869Z,99999.69
2022-08-01T22:14:48.207Z,100000.72
2022-08-01T22:17:22.630Z,99997.38
2022-08-01T22:19:55.150Z,100001.03
2022-08-01T22:22:45.293Z,99995.78
2022-08-01T22:25:11.098Z,100002.88
2022-08-01T22:28:06.628Z,99997.69
2022-08-01T22:30:29.192Z,100011.69
2022-08-01T22:33:15.219Z,100004.81
2022-08-01T22:35:46.580Z,100014.47
2022-08-01T22:38:13.850Z,100012.81
2022-08-01T22:40:50.162Z,100024.22
2022-08-01T22:43:26.230Z,100022.50
2022-08-01T22:46:14.513Z,100016.34
2022-08-01T22:49:27.523Z,100025.13
2022-08-01T22:52:08.173Z,100025.06
2022-08-01T22:54:40.661Z,100031.16
2022-08-01T22:57:16.261Z,100024.19
2022-08-01T22:59:49.937Z,100031.22
2022-08-01T23:02:17.710Z,100035.63
2022-08-01T23:04:49.544Z,100031.34
2022-08-01T23:07:23.655Z,100033.91
2022-08-01T23:09:55.352Z,100037.34
2022-08-01T23:12:27.007Z,100024.19
2022-08-01T23:14:55.956Z,100030.31
2022-08-01T23:17:29.321Z,100035.50
2022-08-01T23:19:58.637Z,100026.78
2022-08-01T23:22:29.354Z,100031.16
2022-08-01T23:25:03.607Z,100032.03
2022-08-01T23:27:51.501Z,100028.59
2022-08-01T23:30:24.130Z,100031.22
2022-08-01T23:32:51.002Z,100025.97
2022-08-01T23:35:18.069Z,100034.72
2022-08-01T23:37:45.000Z,100030.38
2022-08-01T23:40:12.410Z,100027.75
2022-08-01T23:42:39.280Z,100029.47
2022-08-01T23:45:07.328Z,100033.84
2022-08-01T23:47:34.222Z,100029.47
2022-08-01T23:50:01.132Z,100024.28
2022-08-01T23:52:32.067Z,100023.38
2022-08-01T23:55:05.775Z,100025.78
2022-08-01T23:57:42.457Z,100025.69
